sensor_id;sensor_type;location;lat;lon;timestamp;temperature;humidity
14359;DHT22;7263;49.418;11.064;2022-07-29T00:01:47;20.80;90.20
14359;DHT22;7263;49.418;11.064;2022-07-29T00:04:14;20.90;90.40
14359;DHT22;7263;49.418;11.064;2022-07-29T00:06:41;20.80;90.40
14359;DHT22;7263;49.418;11.064;2022-07-29T00:09:08;20.80;90.00
14359;DHT22;7263;49.418;11.064;2022-07-29T00:11:35;20.80;90.30
14359;DHT22;7263;49.418;11.064;2022-07-29T00:14:02;20.70;90.50
14359;DHT22;7263;49.418;11.064;2022-07-29T00:16:31;20.70;90.50
14359;DHT22;7263;49.418;11.064;2022-07-29T00:18:57;20.70;90.20
14359;DHT22;7263;49.418;11.064;2022-07-29T00:21:24;20.70;90.40
14359;DHT22;7263;49.418;11.064;2022-07-29T00:23:51;20.70;90.40
14359;DHT22;7263;49.418;11.064;2022-07-29T00:26:18;20.70;90.30
14359;DHT22;7263;49.418;11.064;2022-07-29T00:28:45;20.70;90.20
14359;DHT22;7263;49.418;11.064;2022-07-29T00:31:12;20.70;90.50
14359;DHT22;7263;49.418;11.064;2022-07-29T00:33:40;20.60;90.50
14359;DHT22;7263;49.418;11.064;2022-07-29T00:36:07;20.60;90.60
14359;DHT22;7263;49.418;11.064;2022-07-29T00:38:33;20.60;90.30
14359;DHT22;7263;49.418;11.064;2022-07-29T00:41:00;20.60;90.60
14359;DHT22;7263;49.418;11.064;2022-07-29T00:43:27;20.60;90.70
14359;DHT22;7263;49.418;11.064;2022-07-29T00:45:53;20.50;90.30
14359;DHT22;7263;49.418;11.064;2022-07-29T00:48:20;20.50;90.50
14359;DHT22;7263;49.418;11.064;2022-07-29T00:50:49;20.50;90.30
14359;DHT22;7263;49.418;11.064;2022-07-29T00:53:16;20.50;90.60
14359;DHT22;7263;49.418;11.064;2022-07-29T00:55:43;20.60;90.80
14359;DHT22;7263;49.418;11.064;2022-07-29T00:58:12;20.60;90.90
14359;DHT22;7263;49.418;11.064;2022-07-29T01:00:39;20.50;90.50
14359;DHT22;7263;49.418;11.064;2022-07-29T01:03:07;20.50;90.80
14359;DHT22;7263;49.418;11.064;2022-07-29T01:05:35;20.60;90.90
14359;DHT22;7263;49.418;11.064;2022-07-29T01:08:04;20.60;90.80
14359;DHT22;7263;49.418;11.064;2022-07-29T01:10:32;20.60;90.50
14359;DHT22;7263;49.418;11.064;2022-07-29T01:13:01;20.60;90.90
14359;DHT22;7263;49.418;11.064;2022-07-29T01:15:28;20.60;91.00
14359;DHT22;7263;49.418;11.064;2022-07-29T01:18:01;20.60;91.10
14359;DHT22;7263;49.418;11.064;2022-07-29T01:20:42;20.50;90.90
14359;DHT22;7263;49.418;11.064;2022-07-29T01:23:26;20.50;91.30
14359;DHT22;7263;49.418;11.064;2022-07-29T01:29:11;20.40;91.30
14359;DHT22;7263;49.418;11.064;2022-07-29T01:31:45;20.30;91.60
14359;DHT22;7263;49.418;11.064;2022-07-29T01:34:17;20.30;91.80
14359;DHT22;7263;49.418;11.064;2022-07-29T01:36:48;20.30;92.10
14359;DHT22;7263;49.418;11.064;2022-07-29T01:39:21;20.20;91.90
14359;DHT22;7263;49.418;11.064;2022-07-29T01:41:56;20.10;92.30
14359;DHT22;7263;49.418;11.064;2022-07-29T01:44:30;20.10;92.30
14359;DHT22;7263;49.418;11.064;2022-07-29T01:47:01;20.00;92.40
14359;DHT22;7263;49.418;11.064;2022-07-29T01:49:35;20.00;92.10
14359;DHT22;7263;49.418;11.064;2022-07-29T01:52:07;19.90;92.40
14359;DHT22;7263;49.418;11.064;2022-07-29T01:54:38;19.90;92.60
14359;DHT22;7263;49.418;11.064;2022-07-29T01:57:09;19.80;92.60
14359;DHT22;7263;49.418;11.064;2022-07-29T01:59:40;19.70;92.20
14359;DHT22;7263;49.418;11.064;2022-07-29T02:02:09;19.70;92.60
14359;DHT22;7263;49.418;11.064;2022-07-29T02:04:37;19.60;92.40
14359;DHT22;7263;49.418;11.064;2022-07-29T02:07:07;19.60;92.70
14359;DHT22;7263;49.418;11.064;2022-07-29T02:09:36;19.60;92.90
14359;DHT22;7263;49.418;11.064;2022-07-29T02:12:06;19.60;93.20
14359;DHT22;7263;49.418;11.064;2022-07-29T02:14:37;19.50;93.30
14359;DHT22;7263;49.418;11.064;2022-07-29T02:17:06;19.50;93.10
14359;DHT22;7263;49.418;11.064;2022-07-29T02:19:34;19.50;93.00
14359;DHT22;7263;49.418;11.064;2022-07-29T02:22:04;19.50;93.30
14359;DHT22;7263;49.418;11.064;2022-07-29T02:24:34;19.50;93.10
14359;DHT22;7263;49.418;11.064;2022-07-29T02:27:03;19.50;92.80
14359;DHT22;7263;49.418;11.064;2022-07-29T02:29:31;19.50;92.90
14359;DHT22;7263;49.418;11.064;2022-07-29T02:31:59;19.50;93.30
14359;DHT22;7263;49.418;11.064;2022-07-29T02:34:29;19.50;93.50
14359;DHT22;7263;49.418;11.064;2022-07-29T02:36:56;19.40;93.40
14359;DHT22;7263;49.418;11.064;2022-07-29T02:39:24;19.40;92.50
14359;DHT22;7263;49.418;11.064;2022-07-29T02:41:58;19.40;92.70
14359;DHT22;7263;49.418;11.064;2022-07-29T02:44:27;19.50;92.60
14359;DHT22;7263;49.418;11.064;2022-07-29T02:47:01;19.50;92.50
14359;DHT22;7263;49.418;11.064;2022-07-29T02:49:35;19.60;91.90
14359;DHT22;7263;49.418;11.064;2022-07-29T02:52:04;19.70;92.20
14359;DHT22;7263;49.418;11.064;2022-07-29T02:54:37;19.70;92.30
14359;DHT22;7263;49.418;11.064;2022-07-29T02:57:10;19.70;92.30
14359;DHT22;7263;49.418;11.064;2022-07-29T02:59:38;19.80;91.60
14359;DHT22;7263;49.418;11.064;2022-07-29T03:02:08;19.80;91.90
14359;DHT22;7263;49.418;11.064;2022-07-29T03:04:40;19.80;92.00
14359;DHT22;7263;49.418;11.064;2022-07-29T03:07:08;19.80;91.90
14359;DHT22;7263;49.418;11.064;2022-07-29T03:09:37;19.80;91.60
14359;DHT22;7263;49.418;11.064;2022-07-29T03:12:05;19.80;92.10
14359;DHT22;7263;49.418;11.064;2022-07-29T03:14:33;19.80;92.10
14359;DHT22;7263;49.418;11.064;2022-07-29T03:17:00;19.80;92.00
14359;DHT22;7263;49.418;11.064;2022-07-29T03:19:27;19.80;91.60
14359;DHT22;7263;49.418;11.064;2022-07-29T03:21:58;19.80;92.00
14359;DHT22;7263;49.418;11.064;2022-07-29T03:24:31;19.80;92.10
14359;DHT22;7263;49.418;11.064;2022-07-29T03:26:58;19.80;92.20
14359;DHT22;7263;49.418;11.064;2022-07-29T03:29:25;19.70;91.90
14359;DHT22;7263;49.418;11.064;2022-07-29T03:31:53;19.70;92.20
14359;DHT22;7263;49.418;11.064;2022-07-29T03:34:20;19.70;92.30
14359;DHT22;7263;49.418;11.064;2022-07-29T03:36:47;19.60;92.40
14359;DHT22;7263;49.418;11.064;2022-07-29T03:39:17;19.50;91.90
14359;DHT22;7263;49.418;11.064;2022-07-29T03:41:48;19.50;92.20
14359;DHT22;7263;49.418;11.064;2022-07-29T03:44:17;19.50;91.90
14359;DHT22;7263;49.418;11.064;2022-07-29T03:46:48;19.50;92.00
14359;DHT22;7263;49.418;11.064;2022-07-29T03:49:16;19.50;92.00
14359;DHT22;7263;49.418;11.064;2022-07-29T03:51:45;19.50;92.30
14359;DHT22;7263;49.418;11.064;2022-07-29T03:54:12;19.50;92.40
14359;DHT22;7263;49.418;11.064;2022-07-29T03:56:43;19.40;92.60
14359;DHT22;7263;49.418;11.064;2022-07-29T03:59:14;19.30;92.40
14359;DHT22;7263;49.418;11.064;2022-07-29T04:01:42;19.30;92.80
14359;DHT22;7263;49.418;11.064;2022-07-29T04:04:09;19.30;92.80
14359;DHT22;7263;49.418;11.064;2022-07-29T04:06:40;19.20;93.00
14359;DHT22;7263;49.418;11.064;2022-07-29T04:09:07;19.10;92.80
14359;DHT22;7263;49.418;11.064;2022-07-29T04:11:35;19.10;93.10
14359;DHT22;7263;49.418;11.064;2022-07-29T04:14:03;19.00;92.80
14359;DHT22;7263;49.418;11.064;2022-07-29T04:16:30;19.00;93.00
14359;DHT22;7263;49.418;11.064;2022-07-29T04:18:57;19.00;92.40
14359;DHT22;7263;49.418;11.064;2022-07-29T04:21:24;19.00;92.70
14359;DHT22;7263;49.418;11.064;2022-07-29T04:23:51;19.00;92.60
14359;DHT22;7263;49.418;11.064;2022-07-29T04:26:18;19.00;92.60
14359;DHT22;7263;49.418;11.064;2022-07-29T04:28:46;19.00;92.60
14359;DHT22;7263;49.418;11.064;2022-07-29T04:31:14;19.00;92.80
14359;DHT22;7263;49.418;11.064;2022-07-29T04:33:41;18.90;92.50
14359;DHT22;7263;49.418;11.064;2022-07-29T04:36:08;18.90;92.80
14359;DHT22;7263;49.418;11.064;2022-07-29T04:38:36;18.90;92.40
14359;DHT22;7263;49.418;11.064;2022-07-29T04:41:03;18.90;92.40
14359;DHT22;7263;49.418;11.064;2022-07-29T04:43:30;18.90;92.60
14359;DHT22;7263;49.418;11.064;2022-07-29T04:48:26;18.80;93.00
14359;DHT22;7263;49.418;11.064;2022-07-29T04:50:53;18.80;93.30
14359;DHT22;7263;49.418;11.064;2022-07-29T04:53:20;18.80;93.70
14359;DHT22;7263;49.418;11.064;2022-07-29T04:55:47;18.80;94.00
14359;DHT22;7263;49.418;11.064;2022-07-29T04:58:14;18.80;94.20
14359;DHT22;7263;49.418;11.064;2022-07-29T05:00:41;18.80;94.40
14359;DHT22;7263;49.418;11.064;2022-07-29T05:03:08;18.80;95.00
14359;DHT22;7263;49.418;11.064;2022-07-29T05:05:36;18.80;95.20
14359;DHT22;7263;49.418;11.064;2022-07-29T05:08:03;18.80;95.40
14359;DHT22;7263;49.418;11.064;2022-07-29T05:10:30;18.90;95.30
14359;DHT22;7263;49.418;11.064;2022-07-29T05:12:57;19.00;95.30
14359;DHT22;7263;49.418;11.064;2022-07-29T05:15:24;19.10;95.30
14359;DHT22;7263;49.418;11.064;2022-07-29T05:17:51;19.50;95.10
14359;DHT22;7263;49.418;11.064;2022-07-29T05:20:17;20.20;94.30
14359;DHT22;7263;49.418;11.064;2022-07-29T05:22:52;20.50;93.60
14359;DHT22;7263;49.418;11.064;2022-07-29T05:25:19;21.20;93.50
14359;DHT22;7263;49.418;11.064;2022-07-29T05:27:46;21.70;92.60
14359;DHT22;7263;49.418;11.064;2022-07-29T05:30:13;22.30;91.70
14359;DHT22;7263;49.418;11.064;2022-07-29T05:32:40;22.60;91.30
14359;DHT22;7263;49.418;11.064;2022-07-29T05:35:08;22.90;91.30
14359;DHT22;7263;49.418;11.064;2022-07-29T05:37:35;23.10;91.00
14359;DHT22;7263;49.418;11.064;2022-07-29T05:40:04;23.30;90.90
14359;DHT22;7263;49.418;11.064;2022-07-29T05:42:31;23.50;90.70
14359;DHT22;7263;49.418;11.064;2022-07-29T05:44:59;23.70;90.40
14359;DHT22;7263;49.418;11.064;2022-07-29T05:47:27;23.80;90.00
14359;DHT22;7263;49.418;11.064;2022-07-29T05:49:54;23.90;90.10
14359;DHT22;7263;49.418;11.064;2022-07-29T05:52:21;24.10;90.00
14359;DHT22;7263;49.418;11.064;2022-07-29T05:54:48;24.30;90.00
14359;DHT22;7263;49.418;11.064;2022-07-29T05:57:17;24.30;89.90
14359;DHT22;7263;49.418;11.064;2022-07-29T05:59:44;24.30;89.80
14359;DHT22;7263;49.418;11.064;2022-07-29T06:02:11;24.30;89.90
14359;DHT22;7263;49.418;11.064;2022-07-29T06:04:38;24.40;90.30
14359;DHT22;7263;49.418;11.064;2022-07-29T06:07:05;24.70;90.00
14359;DHT22;7263;49.418;11.064;2022-07-29T06:09:32;24.90;88.60
14359;DHT22;7263;49.418;11.064;2022-07-29T06:11:59;24.80;88.70
14359;DHT22;7263;49.418;11.064;2022-07-29T06:14:28;24.90;89.50
14359;DHT22;7263;49.418;11.064;2022-07-29T06:16:54;25.20;88.90
14359;DHT22;7263;49.418;11.064;2022-07-29T06:19:21;25.40;89.20
14359;DHT22;7263;49.418;11.064;2022-07-29T06:21:48;25.60;88.60
14359;DHT22;7263;49.418;11.064;2022-07-29T06:24:16;25.70;88.00
14359;DHT22;7263;49.418;11.064;2022-07-29T06:26:43;25.90;88.40
14359;DHT22;7263;49.418;11.064;2022-07-29T06:29:10;26.10;86.90
14359;DHT22;7263;49.418;11.064;2022-07-29T06:31:38;26.50;87.50
14359;DHT22;7263;49.418;11.064;2022-07-29T06:34:05;26.50;86.60
14359;DHT22;7263;49.418;11.064;2022-07-29T06:36:34;26.60;85.60
14359;DHT22;7263;49.418;11.064;2022-07-29T06:39:05;26.60;85.40
14359;DHT22;7263;49.418;11.064;2022-07-29T06:41:33;26.50;86.50
14359;DHT22;7263;49.418;11.064;2022-07-29T06:44:00;26.50;86.70
14359;DHT22;7263;49.418;11.064;2022-07-29T06:46:27;26.60;86.40
14359;DHT22;7263;49.418;11.064;2022-07-29T06:48:58;26.80;85.70
14359;DHT22;7263;49.418;11.064;2022-07-29T06:51:27;26.80;86.30
14359;DHT22;7263;49.418;11.064;2022-07-29T06:53:54;26.80;86.20
14359;DHT22;7263;49.418;11.064;2022-07-29T06:56:23;26.80;85.90
14359;DHT22;7263;49.418;11.064;2022-07-29T06:58:51;26.40;86.50
14359;DHT22;7263;49.418;11.064;2022-07-29T07:01:18;26.40;87.30
14359;DHT22;7263;49.418;11.064;2022-07-29T07:03:46;26.00;88.10
14359;DHT22;7263;49.418;11.064;2022-07-29T07:06:14;25.90;88.30
14359;DHT22;7263;49.418;11.064;2022-07-29T07:08:41;26.20;87.90
14359;DHT22;7263;49.418;11.064;2022-07-29T07:11:09;26.20;88.30
14359;DHT22;7263;49.418;11.064;2022-07-29T07:13:36;26.50;88.90
14359;DHT22;7263;49.418;11.064;2022-07-29T07:16:03;26.90;87.80
14359;DHT22;7263;49.418;11.064;2022-07-29T07:18:31;27.10;87.00
14359;DHT22;7263;49.418;11.064;2022-07-29T07:20:57;27.10;87.50
14359;DHT22;7263;49.418;11.064;2022-07-29T07:23:26;26.90;88.00
14359;DHT22;7263;49.418;11.064;2022-07-29T07:25:53;26.50;88.40
14359;DHT22;7263;49.418;11.064;2022-07-29T07:28:20;26.50;89.10
14359;DHT22;7263;49.418;11.064;2022-07-29T07:30:47;26.70;87.80
14359;DHT22;7263;49.418;11.064;2022-07-29T07:33:14;27.00;87.60
14359;DHT22;7263;49.418;11.064;2022-07-29T07:35:41;27.10;87.70
14359;DHT22;7263;49.418;11.064;2022-07-29T07:38:08;27.20;88.30
14359;DHT22;7263;49.418;11.064;2022-07-29T07:40:37;27.30;87.30
14359;DHT22;7263;49.418;11.064;2022-07-29T07:43:05;27.30;87.50
14359;DHT22;7263;49.418;11.064;2022-07-29T07:45:33;27.60;87.80
14359;DHT22;7263;49.418;11.064;2022-07-29T07:48:02;28.20;87.00
14359;DHT22;7263;49.418;11.064;2022-07-29T07:50:29;28.80;85.80
14359;DHT22;7263;49.418;11.064;2022-07-29T07:52:56;29.20;85.20
14359;DHT22;7263;49.418;11.064;2022-07-29T07:55:24;29.20;84.70
14359;DHT22;7263;49.418;11.064;2022-07-29T07:57:53;28.90;84.30
14359;DHT22;7263;49.418;11.064;2022-07-29T08:00:20;28.30;85.50
14359;DHT22;7263;49.418;11.064;2022-07-29T08:02:47;27.90;85.70
14359;DHT22;7263;49.418;11.064;2022-07-29T08:05:15;27.60;86.90
14359;DHT22;7263;49.418;11.064;2022-07-29T08:07:44;27.50;87.40
14359;DHT22;7263;49.418;11.064;2022-07-29T08:10:11;27.20;87.00
14359;DHT22;7263;49.418;11.064;2022-07-29T08:12:38;27.30;87.90
14359;DHT22;7263;49.418;11.064;2022-07-29T08:15:08;27.60;86.80
14359;DHT22;7263;49.418;11.064;2022-07-29T08:17:35;27.90;87.10
14359;DHT22;7263;49.418;11.064;2022-07-29T08:20:03;28.20;84.90
14359;DHT22;7263;49.418;11.064;2022-07-29T08:22:30;28.20;85.40
14359;DHT22;7263;49.418;11.064;2022-07-29T08:24:56;28.20;85.70
14359;DHT22;7263;49.418;11.064;2022-07-29T08:27:23;28.00;86.10
14359;DHT22;7263;49.418;11.064;2022-07-29T08:29:52;28.40;85.30
14359;DHT22;7263;49.418;11.064;2022-07-29T08:32:24;28.80;86.00
14359;DHT22;7263;49.418;11.064;2022-07-29T08:34:54;29.40;85.10
14359;DHT22;7263;49.418;11.064;2022-07-29T08:37:22;30.10;84.50
14359;DHT22;7263;49.418;11.064;2022-07-29T08:39:50;31.20;81.60
14359;DHT22;7263;49.418;11.064;2022-07-29T08:42:18;31.70;82.60
14359;DHT22;7263;49.418;11.064;2022-07-29T08:44:45;32.50;79.60
14359;DHT22;7263;49.418;11.064;2022-07-29T08:47:17;32.60;79.30
14359;DHT22;7263;49.418;11.064;2022-07-29T08:49:45;32.70;79.20
14359;DHT22;7263;49.418;11.064;2022-07-29T08:52:18;33.30;79.50
14359;DHT22;7263;49.418;11.064;2022-07-29T08:54:47;33.30;80.20
14359;DHT22;7263;49.418;11.064;2022-07-29T08:57:16;34.00;79.40
14359;DHT22;7263;49.418;11.064;2022-07-29T08:59:43;34.40;75.80
14359;DHT22;7263;49.418;11.064;2022-07-29T09:02:18;34.60;75.00
14359;DHT22;7263;49.418;11.064;2022-07-29T09:04:49;34.60;75.30
14359;DHT22;7263;49.418;11.064;2022-07-29T09:07:18;34.80;75.60
14359;DHT22;7263;49.418;11.064;2022-07-29T09:09:45;35.00;75.00
14359;DHT22;7263;49.418;11.064;2022-07-29T09:12:12;35.10;74.50
14359;DHT22;7263;49.418;11.064;2022-07-29T09:14:40;34.60;74.60
14359;DHT22;7263;49.418;11.064;2022-07-29T09:17:07;34.10;74.00
14359;DHT22;7263;49.418;11.064;2022-07-29T09:19:36;34.10;74.90
14359;DHT22;7263;49.418;11.064;2022-07-29T09:22:07;34.40;74.40
14359;DHT22;7263;49.418;11.064;2022-07-29T09:24:43;34.40;74.20
14359;DHT22;7263;49.418;11.064;2022-07-29T09:27:21;34.50;75.20
14359;DHT22;7263;49.418;11.064;2022-07-29T09:29:56;34.10;74.20
14359;DHT22;7263;49.418;11.064;2022-07-29T09:32:23;33.90;74.70
14359;DHT22;7263;49.418;11.064;2022-07-29T09:35:18;33.60;75.60
14359;DHT22;7263;49.418;11.064;2022-07-29T09:37:47;33.00;75.20
14359;DHT22;7263;49.418;11.064;2022-07-29T09:40:16;32.70;74.70
14359;DHT22;7263;49.418;11.064;2022-07-29T09:42:43;32.20;75.40
14359;DHT22;7263;49.418;11.064;2022-07-29T09:45:10;31.70;76.20
14359;DHT22;7263;49.418;11.064;2022-07-29T09:47:44;31.40;76.90
14359;DHT22;7263;49.418;11.064;2022-07-29T09:50:14;31.00;77.40
14359;DHT22;7263;49.418;11.064;2022-07-29T09:52:47;30.60;78.80
14359;DHT22;7263;49.418;11.064;2022-07-29T09:55:15;30.30;78.50
14359;DHT22;7263;49.418;11.064;2022-07-29T09:57:42;30.20;79.30
14359;DHT22;7263;49.418;11.064;2022-07-29T10:00:11;30.20;78.70
14359;DHT22;7263;49.418;11.064;2022-07-29T10:02:39;30.30;79.60
14359;DHT22;7263;49.418;11.064;2022-07-29T10:05:17;30.50;78.80
14359;DHT22;7263;49.418;11.064;2022-07-29T10:07:47;30.50;78.90
14359;DHT22;7263;49.418;11.064;2022-07-29T10:10:23;30.90;78.00
14359;DHT22;7263;49.418;11.064;2022-07-29T10:12:53;31.10;78.80
14359;DHT22;7263;49.418;11.064;2022-07-29T10:15:22;31.30;77.10
14359;DHT22;7263;49.418;11.064;2022-07-29T10:17:50;31.40;77.70
14359;DHT22;7263;49.418;11.064;2022-07-29T10:20:19;31.50;76.70
14359;DHT22;7263;49.418;11.064;2022-07-29T10:22:48;31.50;77.80
14359;DHT22;7263;49.418;11.064;2022-07-29T10:25:16;31.80;77.20
14359;DHT22;7263;49.418;11.064;2022-07-29T10:27:43;32.20;78.00
14359;DHT22;7263;49.418;11.064;2022-07-29T10:30:12;32.40;76.90
14359;DHT22;7263;49.418;11.064;2022-07-29T10:32:51;32.40;76.90
14359;DHT22;7263;49.418;11.064;2022-07-29T10:35:26;32.20;76.50
14359;DHT22;7263;49.418;11.064;2022-07-29T10:38:12;32.40;76.90
14359;DHT22;7263;49.418;11.064;2022-07-29T10:40:50;28.50;72.00
14359;DHT22;7263;49.418;11.064;2022-07-29T10:43:40;32.80;75.20
14359;DHT22;7263;49.418;11.064;2022-07-29T10:46:08;33.10;75.20
14359;DHT22;7263;49.418;11.064;2022-07-29T10:48:36;33.00;73.80
14359;DHT22;7263;49.418;11.064;2022-07-29T10:51:22;32.90;74.60
14359;DHT22;7263;49.418;11.064;2022-07-29T10:53:52;32.40;75.60
14359;DHT22;7263;49.418;11.064;2022-07-29T10:56:29;32.60;75.20
14359;DHT22;7263;49.418;11.064;2022-07-29T10:59:24;32.30;75.40
14359;DHT22;7263;49.418;11.064;2022-07-29T11:01:52;32.20;75.80
14359;DHT22;7263;49.418;11.064;2022-07-29T11:07:20;32.80;75.20
14359;DHT22;7263;49.418;11.064;2022-07-29T11:12:49;33.10;76.90
14359;DHT22;7263;49.418;11.064;2022-07-29T11:15:18;32.60;76.30
14359;DHT22;7263;49.418;11.064;2022-07-29T11:18:07;32.30;77.50
14359;DHT22;7263;49.418;11.064;2022-07-29T11:20:37;31.90;77.80
14359;DHT22;7263;49.418;11.064;2022-07-29T11:23:24;31.80;78.60
14359;DHT22;7263;49.418;11.064;2022-07-29T11:26:14;32.00;78.20
14359;DHT22;7263;49.418;11.064;2022-07-29T11:28:54;31.90;77.70
14359;DHT22;7263;49.418;11.064;2022-07-29T11:31:37;31.90;78.60
14359;DHT22;7263;49.418;11.064;2022-07-29T11:34:26;31.90;77.80
14359;DHT22;7263;49.418;11.064;2022-07-29T11:37:22;31.60;79.50
14359;DHT22;7263;49.418;11.064;2022-07-29T11:40:10;31.80;80.10
14359;DHT22;7263;49.418;11.064;2022-07-29T11:42:45;32.10;80.50
14359;DHT22;7263;49.418;11.064;2022-07-29T11:45:21;32.30;79.30
14359;DHT22;7263;49.418;11.064;2022-07-29T11:47:54;32.30;79.60
14359;DHT22;7263;49.418;11.064;2022-07-29T11:50:35;32.30;78.80
14359;DHT22;7263;49.418;11.064;2022-07-29T11:53:11;32.10;79.10
14359;DHT22;7263;49.418;11.064;2022-07-29T11:55:39;32.00;80.20
14359;DHT22;7263;49.418;11.064;2022-07-29T11:58:06;32.00;80.10
14359;DHT22;7263;49.418;11.064;2022-07-29T12:00:36;32.40;79.00
14359;DHT22;7263;49.418;11.064;2022-07-29T12:03:05;32.70;79.30
14359;DHT22;7263;49.418;11.064;2022-07-29T12:05:34;32.70;79.10
14359;DHT22;7263;49.418;11.064;2022-07-29T12:08:13;33.10;79.60
14359;DHT22;7263;49.418;11.064;2022-07-29T12:10:41;33.30;77.60
14359;DHT22;7263;49.418;11.064;2022-07-29T12:13:09;33.50;77.30
14359;DHT22;7263;49.418;11.064;2022-07-29T12:15:38;33.70;77.50
14359;DHT22;7263;49.418;11.064;2022-07-29T12:18:16;33.50;74.90
14359;DHT22;7263;49.418;11.064;2022-07-29T12:20:44;33.10;75.90
14359;DHT22;7263;49.418;11.064;2022-07-29T12:23:11;32.60;77.10
14359;DHT22;7263;49.418;11.064;2022-07-29T12:25:42;32.40;77.30
14359;DHT22;7263;49.418;11.064;2022-07-29T12:28:11;32.30;77.40
14359;DHT22;7263;49.418;11.064;2022-07-29T12:30:43;32.60;76.70
14359;DHT22;7263;49.418;11.064;2022-07-29T12:33:16;32.70;74.90
14359;DHT22;7263;49.418;11.064;2022-07-29T12:35:46;32.80;75.10
14359;DHT22;7263;49.418;11.064;2022-07-29T12:38:14;32.90;75.40
14359;DHT22;7263;49.418;11.064;2022-07-29T12:40:42;32.70;75.20
14359;DHT22;7263;49.418;11.064;2022-07-29T12:43:10;32.40;76.80
14359;DHT22;7263;49.418;11.064;2022-07-29T12:45:43;32.30;76.70
14359;DHT22;7263;49.418;11.064;2022-07-29T12:48:11;32.00;77.10
14359;DHT22;7263;49.418;11.064;2022-07-29T12:50:52;31.70;76.20
14359;DHT22;7263;49.418;11.064;2022-07-29T12:53:20;31.70;76.60
14359;DHT22;7263;49.418;11.064;2022-07-29T12:55:48;31.60;76.10
14359;DHT22;7263;49.418;11.064;2022-07-29T12:58:31;31.60;75.70
14359;DHT22;7263;49.418;11.064;2022-07-29T13:01:02;31.40;75.10
14359;DHT22;7263;49.418;11.064;2022-07-29T13:03:40;31.20;76.00
14359;DHT22;7263;49.418;11.064;2022-07-29T13:06:27;31.10;75.20
14359;DHT22;7263;49.418;11.064;2022-07-29T13:09:03;31.00;75.70
14359;DHT22;7263;49.418;11.064;2022-07-29T13:11:31;30.80;76.00
14359;DHT22;7263;49.418;11.064;2022-07-29T13:13:58;30.80;77.80
14359;DHT22;7263;49.418;11.064;2022-07-29T13:16:27;30.80;77.10
14359;DHT22;7263;49.418;11.064;2022-07-29T13:19:05;30.90;76.50
14359;DHT22;7263;49.418;11.064;2022-07-29T13:21:32;30.90;75.00
14359;DHT22;7263;49.418;11.064;2022-07-29T13:23:59;30.90;74.60
14359;DHT22;7263;49.418;11.064;2022-07-29T13:26:26;30.90;74.70
14359;DHT22;7263;49.418;11.064;2022-07-29T13:28:53;30.80;74.30
14359;DHT22;7263;49.418;11.064;2022-07-29T13:31:20;30.60;74.30
14359;DHT22;7263;49.418;11.064;2022-07-29T13:33:48;30.40;74.30
14359;DHT22;7263;49.418;11.064;2022-07-29T13:36:15;30.00;75.00
14359;DHT22;7263;49.418;11.064;2022-07-29T13:38:43;29.10;80.90
14359;DHT22;7263;49.418;11.064;2022-07-29T13:41:10;29.10;81.70
14359;DHT22;7263;49.418;11.064;2022-07-29T13:43:37;28.60;82.40
14359;DHT22;7263;49.418;11.064;2022-07-29T13:46:03;28.20;83.70
14359;DHT22;7263;49.418;11.064;2022-07-29T13:48:30;27.40;84.80
14359;DHT22;7263;49.418;11.064;2022-07-29T13:50:59;27.30;85.30
14359;DHT22;7263;49.418;11.064;2022-07-29T13:53:25;27.10;85.20
14359;DHT22;7263;49.418;11.064;2022-07-29T13:55:53;26.90;84.60
14359;DHT22;7263;49.418;11.064;2022-07-29T13:58:20;26.70;85.00
14359;DHT22;7263;49.418;11.064;2022-07-29T14:00:47;26.50;84.10
14359;DHT22;7263;49.418;11.064;2022-07-29T14:03:14;26.40;86.20
14359;DHT22;7263;49.418;11.064;2022-07-29T14:05:41;26.20;89.10
14359;DHT22;7263;49.418;11.064;2022-07-29T14:08:09;26.00;91.60
14359;DHT22;7263;49.418;11.064;2022-07-29T14:10:36;25.70;91.10
14359;DHT22;7263;49.418;11.064;2022-07-29T14:13:03;25.50;92.50
14359;DHT22;7263;49.418;11.064;2022-07-29T14:15:30;25.30;92.90
14359;DHT22;7263;49.418;11.064;2022-07-29T14:17:56;24.90;94.10
14359;DHT22;7263;49.418;11.064;2022-07-29T14:22:51;24.10;96.00
14359;DHT22;7263;49.418;11.064;2022-07-29T14:25:19;23.80;97.20
14359;DHT22;7263;49.418;11.064;2022-07-29T14:27:46;23.60;98.40
14359;DHT22;7263;49.418;11.064;2022-07-29T14:30:13;23.40;98.60
14359;DHT22;7263;49.418;11.064;2022-07-29T14:32:40;23.30;99.20
14359;DHT22;7263;49.418;11.064;2022-07-29T14:35:09;23.30;99.20
14359;DHT22;7263;49.418;11.064;2022-07-29T14:40:04;23.50;98.00
14359;DHT22;7263;49.418;11.064;2022-07-29T14:42:33;23.70;97.70
14359;DHT22;7263;49.418;11.064;2022-07-29T14:45:00;23.80;97.30
14359;DHT22;7263;49.418;11.064;2022-07-29T14:47:27;24.00;97.60
14359;DHT22;7263;49.418;11.064;2022-07-29T14:49:54;24.10;97.30
14359;DHT22;7263;49.418;11.064;2022-07-29T14:52:22;24.30;97.00
14359;DHT22;7263;49.418;11.064;2022-07-29T14:54:48;24.50;96.70
14359;DHT22;7263;49.418;11.064;2022-07-29T14:57:17;24.60;97.00
14359;DHT22;7263;49.418;11.064;2022-07-29T14:59:46;24.80;97.30
14359;DHT22;7263;49.418;11.064;2022-07-29T15:02:13;24.90;96.40
14359;DHT22;7263;49.418;11.064;2022-07-29T15:04:40;25.00;97.00
14359;DHT22;7263;49.418;11.064;2022-07-29T15:07:07;25.10;95.80
14359;DHT22;7263;49.418;11.064;2022-07-29T15:09:35;25.20;95.90
14359;DHT22;7263;49.418;11.064;2022-07-29T15:12:01;25.20;95.90
14359;DHT22;7263;49.418;11.064;2022-07-29T15:14:30;25.30;97.00
14359;DHT22;7263;49.418;11.064;2022-07-29T15:16:58;25.20;97.30
14359;DHT22;7263;49.418;11.064;2022-07-29T15:19:25;25.10;97.60
14359;DHT22;7263;49.418;11.064;2022-07-29T15:21:52;25.00;97.60
14359;DHT22;7263;49.418;11.064;2022-07-29T15:24:19;24.90;97.20
14359;DHT22;7263;49.418;11.064;2022-07-29T15:26:47;24.80;97.40
14359;DHT22;7263;49.418;11.064;2022-07-29T15:29:14;24.70;97.30
14359;DHT22;7263;49.418;11.064;2022-07-29T15:31:42;24.60;97.50
14359;DHT22;7263;49.418;11.064;2022-07-29T15:34:10;24.60;97.50
14359;DHT22;7263;49.418;11.064;2022-07-29T15:36:37;24.60;97.50
14359;DHT22;7263;49.418;11.064;2022-07-29T15:39:04;24.50;97.30
14359;DHT22;7263;49.418;11.064;2022-07-29T15:41:32;24.40;97.20
14359;DHT22;7263;49.418;11.064;2022-07-29T15:43:59;24.30;97.30
14359;DHT22;7263;49.418;11.064;2022-07-29T15:49:12;24.20;97.10
14359;DHT22;7263;49.418;11.064;2022-07-29T15:51:39;24.10;97.40
14359;DHT22;7263;49.418;11.064;2022-07-29T15:54:06;24.10;98.10
14359;DHT22;7263;49.418;11.064;2022-07-29T15:56:34;24.00;98.10
14359;DHT22;7263;49.418;11.064;2022-07-29T15:59:01;24.00;98.30
14359;DHT22;7263;49.418;11.064;2022-07-29T16:01:28;23.90;98.50
14359;DHT22;7263;49.418;11.064;2022-07-29T16:03:56;23.90;98.60